createdAt,value
2018-07-26T00:00:03.606Z,21.16
2018-07-26T00:02:29.741Z,21.14
2018-07-26T00:04:55.779Z,21.10
2018-07-26T00:07:21.813Z,21.06
2018-07-26T00:09:47.854Z,21.02
2018-07-26T00:12:13.884Z,20.98
2018-07-26T00:14:39.945Z,20.89
2018-07-26T00:17:05.988Z,20.81
2018-07-26T00:19:32.019Z,20.79
2018-07-26T00:21:58.050Z,20.77
2018-07-26T00:24:24.091Z,20.72
2018-07-26T00:26:50.222Z,20.67
2018-07-26T00:29:16.253Z,20.66
2018-07-26T00:31:42.294Z,20.63
2018-07-26T00:34:08.336Z,20.61
2018-07-26T00:36:34.368Z,20.58
2018-07-26T00:39:00.402Z,20.54
2018-07-26T00:41:26.505Z,20.56
2018-07-26T00:43:52.511Z,20.55
2018-07-26T00:46:18.550Z,20.54
2018-07-26T00:48:44.614Z,20.54
2018-07-26T00:51:10.653Z,20.51
2018-07-26T00:53:36.690Z,20.50
2018-07-26T00:57:24.702Z,20.50
2018-07-26T00:59:50.804Z,20.47
2018-07-26T01:02:16.843Z,20.42
2018-07-26T01:04:42.874Z,20.38
2018-07-26T01:07:08.905Z,20.35
2018-07-26T01:09:35.005Z,20.33
2018-07-26T01:12:01.076Z,20.26
2018-07-26T01:14:27.137Z,20.26
2018-07-26T01:16:53.181Z,20.25
2018-07-26T01:19:19.214Z,20.18
2018-07-26T01:21:45.241Z,20.17
2018-07-26T01:24:11.273Z,20.14
2018-07-26T01:26:37.306Z,20.15
2018-07-26T01:29:03.345Z,20.12
2018-07-26T01:31:29.381Z,20.11
2018-07-26T01:33:55.430Z,20.09
2018-07-26T01:36:21.467Z,20.09
2018-07-26T01:38:47.497Z,20.04
2018-07-26T01:41:13.525Z,20.05
2018-07-26T01:43:39.625Z,20.00
2018-07-26T01:46:05.658Z,19.99
2018-07-26T01:48:31.690Z,19.97
2018-07-26T01:50:57.721Z,19.96
2018-07-26T01:53:23.863Z,19.96
2018-07-26T01:55:49.901Z,19.95
2018-07-26T01:58:16.276Z,19.92
2018-07-26T02:00:42.309Z,19.91
2018-07-26T02:03:08.345Z,19.92
2018-07-26T02:05:34.378Z,19.91
2018-07-26T02:08:00.414Z,19.88
2018-07-26T02:10:26.448Z,19.85
2018-07-26T02:12:52.485Z,19.82
2018-07-26T02:15:18.522Z,19.80
2018-07-26T02:17:44.553Z,19.77
2018-07-26T02:20:10.595Z,19.71
2018-07-26T02:22:36.646Z,19.66
2018-07-26T02:25:02.710Z,19.62
2018-07-26T02:27:28.742Z,19.55
2018-07-26T02:29:54.794Z,19.49
2018-07-26T02:32:20.835Z,19.46
2018-07-26T02:34:46.873Z,19.45
2018-07-26T02:37:12.910Z,19.45
2018-07-26T02:39:38.954Z,19.46
2018-07-26T02:42:04.987Z,19.45
2018-07-26T02:44:31.040Z,19.41
2018-07-26T02:46:57.186Z,19.38
2018-07-26T02:49:23.226Z,19.32
2018-07-26T02:51:49.269Z,19.32
2018-07-26T02:54:15.301Z,19.30
2018-07-26T02:56:41.378Z,19.30
2018-07-26T02:59:07.409Z,19.26
2018-07-26T03:01:33.470Z,19.21
2018-07-26T03:03:59.550Z,19.21
2018-07-26T03:06:25.586Z,19.20
2018-07-26T03:08:51.632Z,19.19
2018-07-26T03:11:17.679Z,19.17
2018-07-26T03:13:43.714Z,19.15
2018-07-26T03:16:10.238Z,19.12
2018-07-26T03:18:36.319Z,19.15
2018-07-26T03:21:57.086Z,19.12
2018-07-26T03:24:23.884Z,19.12
2018-07-26T03:26:50.356Z,19.09
2018-07-26T03:29:16.388Z,19.05
2018-07-26T03:31:42.427Z,19.02
2018-07-26T03:34:08.465Z,19.01
2018-07-26T03:36:34.498Z,18.97
2018-07-26T03:39:00.536Z,18.94
2018-07-26T03:41:26.577Z,18.96
2018-07-26T03:43:52.610Z,18.96
2018-07-26T03:46:18.641Z,18.97
2018-07-26T03:48:44.678Z,18.93
2018-07-26T03:51:10.758Z,18.88
2018-07-26T03:53:36.811Z,18.86
2018-07-26T03:56:02.838Z,18.84
2018-07-26T03:58:28.866Z,18.81
2018-07-26T04:00:54.898Z,18.80
2018-07-26T04:03:20.942Z,18.83
2018-07-26T04:05:47.070Z,18.86
2018-07-26T04:08:13.105Z,18.91
2018-07-26T04:10:39.139Z,18.94
2018-07-26T04:13:05.176Z,18.95
2018-07-26T04:15:31.211Z,18.96
2018-07-26T04:17:57.250Z,18.95
2018-07-26T04:20:23.281Z,18.97
2018-07-26T04:22:49.318Z,18.96
2018-07-26T04:25:15.353Z,19.00
2018-07-26T04:27:41.394Z,18.99
2018-07-26T04:30:07.430Z,18.99
2018-07-26T04:34:59.550Z,19.05
2018-07-26T04:37:25.586Z,19.07
2018-07-26T04:39:51.615Z,19.06
2018-07-26T04:42:17.653Z,19.07
2018-07-26T04:44:43.689Z,19.13
2018-07-26T04:47:09.722Z,19.16
2018-07-26T04:49:35.836Z,19.23
2018-07-26T04:52:01.894Z,19.27
2018-07-26T04:54:27.983Z,19.32
2018-07-26T04:56:54.019Z,19.38
2018-07-26T04:59:20.050Z,19.44
2018-07-26T05:01:46.110Z,19.47
2018-07-26T05:04:12.146Z,19.49
2018-07-26T05:06:38.213Z,19.53
2018-07-26T05:09:04.242Z,19.55
2018-07-26T05:11:30.282Z,19.59
2018-07-26T05:13:56.321Z,19.57
2018-07-26T05:16:22.355Z,19.60
2018-07-26T05:18:48.393Z,19.64
2018-07-26T05:21:14.438Z,19.67
2018-07-26T05:23:40.474Z,19.71
2018-07-26T05:26:06.510Z,19.78
2018-07-26T05:28:32.542Z,19.82
2018-07-26T05:30:58.577Z,19.88
2018-07-26T05:33:24.618Z,19.93
2018-07-26T05:35:50.783Z,19.98
2018-07-26T05:38:16.819Z,20.02
2018-07-26T05:40:42.846Z,20.05
2018-07-26T05:43:08.938Z,20.13
2018-07-26T05:45:35.013Z,20.20
2018-07-26T05:48:01.074Z,20.26
2018-07-26T05:50:27.106Z,20.35
2018-07-26T05:52:53.168Z,20.41
2018-07-26T05:55:19.197Z,20.48
2018-07-26T05:57:45.251Z,20.54
2018-07-26T06:00:11.348Z,20.62
2018-07-26T06:02:37.370Z,20.71
2018-07-26T06:05:03.446Z,20.85
2018-07-26T06:07:29.539Z,20.93
2018-07-26T06:09:55.612Z,21.05
2018-07-26T06:12:21.669Z,21.16
2018-07-26T06:14:47.706Z,21.26
2018-07-26T06:17:13.826Z,21.38
2018-07-26T06:19:39.835Z,21.50
2018-07-26T06:22:05.890Z,21.66
2018-07-26T06:24:31.925Z,21.78
2018-07-26T06:26:58.021Z,21.88
2018-07-26T06:29:24.151Z,21.99
2018-07-26T06:31:50.189Z,22.09
2018-07-26T06:34:16.231Z,22.23
2018-07-26T06:36:42.321Z,22.34
2018-07-26T06:39:08.357Z,22.45
2018-07-26T06:41:34.390Z,22.53
2018-07-26T06:44:00.464Z,22.69
2018-07-26T06:46:26.498Z,22.80
2018-07-26T06:48:52.530Z,22.88
2018-07-26T06:51:18.570Z,23.00
2018-07-26T06:53:44.598Z,23.09
2018-07-26T06:56:10.629Z,23.23
2018-07-26T06:58:36.713Z,23.35
2018-07-26T07:01:02.742Z,23.47
2018-07-26T07:03:28.780Z,23.59
2018-07-26T07:05:54.826Z,23.73
2018-07-26T07:08:20.878Z,23.84
2018-07-26T07:10:46.924Z,23.98
2018-07-26T07:13:12.961Z,24.11
2018-07-26T07:15:38.997Z,24.20
2018-07-26T07:18:05.047Z,24.37
2018-07-26T07:20:31.119Z,24.48
2018-07-26T07:22:57.146Z,24.61
2018-07-26T07:25:23.185Z,24.73
2018-07-26T07:27:49.272Z,24.86
2018-07-26T07:30:15.281Z,24.98
2018-07-26T07:32:41.324Z,25.10
2018-07-26T07:35:07.356Z,25.23
2018-07-26T07:37:33.396Z,25.35
2018-07-26T07:39:59.434Z,25.48
2018-07-26T07:42:25.474Z,25.63
2018-07-26T07:44:51.532Z,25.75
2018-07-26T07:47:17.625Z,25.86
2018-07-26T07:49:43.669Z,26.00
2018-07-26T07:52:09.705Z,26.14
2018-07-26T07:54:35.739Z,26.24
2018-07-26T07:57:01.768Z,26.39
2018-07-26T07:59:27.824Z,26.54
2018-07-26T08:01:53.866Z,26.64
2018-07-26T08:04:19.902Z,26.79
2018-07-26T08:06:45.997Z,26.92
2018-07-26T08:09:12.064Z,27.04
2018-07-26T08:11:38.106Z,27.17
2018-07-26T08:14:04.138Z,27.29
2018-07-26T08:16:30.170Z,27.41
2018-07-26T08:18:56.218Z,27.50
2018-07-26T08:21:23.433Z,27.62
2018-07-26T08:23:49.555Z,27.71
2018-07-26T08:26:15.594Z,27.80
2018-07-26T08:28:41.638Z,27.94
2018-07-26T08:31:07.682Z,28.04
2018-07-26T08:33:33.751Z,28.17
2018-07-26T08:35:59.782Z,28.30
2018-07-26T08:38:25.849Z,28.40
2018-07-26T08:40:51.894Z,28.48
2018-07-26T08:43:17.937Z,28.59
2018-07-26T08:45:43.978Z,28.68
2018-07-26T08:48:10.052Z,28.78
2018-07-26T08:50:36.117Z,28.89
2018-07-26T08:53:02.220Z,29.09
2018-07-26T08:55:28.306Z,29.32
2018-07-26T08:57:54.385Z,29.53
2018-07-26T09:00:20.429Z,29.69
2018-07-26T09:02:46.585Z,29.87
2018-07-26T09:05:13.970Z,30.03
2018-07-26T09:07:40.072Z,30.17
2018-07-26T09:10:06.114Z,30.30
2018-07-26T09:12:32.188Z,30.41
2018-07-26T09:14:58.230Z,30.55
2018-07-26T09:17:24.314Z,30.66
2018-07-26T09:19:50.379Z,30.77
2018-07-26T09:22:16.450Z,30.91
2018-07-26T09:24:42.489Z,31.02
2018-07-26T09:27:08.899Z,31.16
2018-07-26T09:29:35.433Z,31.28
2018-07-26T09:32:01.501Z,31.36
2018-07-26T09:34:27.580Z,31.46
2018-07-26T09:36:53.630Z,31.58
2018-07-26T09:39:19.677Z,31.66
2018-07-26T09:41:45.734Z,31.78
2018-07-26T09:44:11.818Z,31.87
2018-07-26T09:46:38.183Z,31.98
2018-07-26T09:49:04.222Z,32.07
2018-07-26T09:51:30.278Z,32.16
2018-07-26T09:53:56.342Z,32.23
2018-07-26T09:56:22.450Z,32.34
2018-07-26T09:58:48.541Z,32.46
2018-07-26T10:01:14.627Z,32.59
2018-07-26T10:03:40.766Z,32.68
2018-07-26T10:06:06.847Z,32.82
2018-07-26T10:08:32.943Z,32.87
2018-07-26T10:10:59.368Z,32.90
2018-07-26T10:13:25.490Z,32.96
2018-07-26T10:15:52.609Z,33.05
2018-07-26T10:18:18.671Z,33.18
2018-07-26T10:20:44.711Z,33.25
2018-07-26T10:23:10.778Z,33.35
2018-07-26T10:25:36.827Z,33.45
2018-07-26T10:28:02.901Z,33.60
2018-07-26T10:30:29.018Z,33.67
2018-07-26T10:32:55.060Z,33.72
2018-07-26T10:35:21.142Z,33.70
2018-07-26T10:37:47.234Z,33.71
2018-07-26T10:40:13.334Z,33.78
2018-07-26T10:42:39.381Z,33.88
2018-07-26T10:45:05.420Z,34.01
2018-07-26T10:47:31.507Z,34.06
2018-07-26T10:49:57.921Z,34.17
2018-07-26T10:52:23.926Z,34.25
2018-07-26T10:54:50.014Z,34.36
2018-07-26T10:57:16.067Z,34.45
2018-07-26T10:59:42.143Z,34.57
2018-07-26T11:02:08.200Z,34.67
2018-07-26T11:04:34.234Z,34.86
2018-07-26T11:07:00.656Z,34.96
2018-07-26T11:09:26.706Z,35.04
2018-07-26T11:11:52.743Z,35.17
2018-07-26T11:14:18.797Z,35.19
2018-07-26T11:16:45.161Z,35.17
2018-07-26T11:19:11.279Z,35.17
2018-07-26T11:21:37.326Z,35.10
2018-07-26T11:24:03.382Z,35.04
2018-07-26T11:26:32.888Z,35.04
2018-07-26T11:28:58.981Z,35.05
2018-07-26T11:31:25.052Z,35.16
2018-07-26T11:33:51.121Z,35.35
2018-07-26T11:36:17.286Z,35.48
2018-07-26T11:38:43.394Z,35.58
2018-07-26T11:41:09.448Z,35.73
2018-07-26T11:43:35.549Z,35.91
2018-07-26T11:46:01.646Z,36.10
2018-07-26T11:48:27.708Z,36.33
2018-07-26T11:50:54.498Z,36.45
2018-07-26T11:53:20.903Z,36.47
2018-07-26T11:55:46.971Z,36.61
2018-07-26T11:58:13.030Z,37.00
2018-07-26T12:00:39.414Z,37.38
2018-07-26T12:03:05.472Z,37.89
2018-07-26T12:05:31.523Z,38.38
2018-07-26T12:07:57.605Z,38.93
2018-07-26T12:10:23.690Z,39.73
2018-07-26T12:12:51.290Z,40.52
2018-07-26T12:15:17.370Z,41.39
2018-07-26T12:17:43.510Z,42.27
2018-07-26T12:20:09.571Z,43.28
2018-07-26T12:22:35.636Z,44.06
2018-07-26T12:25:01.779Z,45.07
2018-07-26T12:27:27.832Z,46.18
2018-07-26T12:29:54.020Z,46.87
2018-07-26T12:32:20.069Z,47.36
2018-07-26T12:34:46.111Z,47.78
2018-07-26T12:37:12.159Z,48.14
2018-07-26T12:39:38.236Z,48.70
2018-07-26T12:42:04.300Z,48.85
2018-07-26T12:44:30.383Z,49.14
2018-07-26T12:46:56.578Z,49.65
2018-07-26T12:49:26.636Z,50.26
2018-07-26T12:51:52.784Z,50.51
2018-07-26T12:54:18.969Z,51.27
2018-07-26T12:56:45.312Z,51.98
2018-07-26T12:59:11.419Z,52.58
2018-07-26T13:01:37.586Z,53.09
2018-07-26T13:04:03.625Z,53.33
2018-07-26T13:06:29.682Z,53.62
2018-07-26T13:08:56.050Z,53.58
2018-07-26T13:11:22.082Z,54.13
2018-07-26T13:13:48.155Z,54.51
2018-07-26T13:16:14.193Z,54.65
2018-07-26T13:18:40.258Z,54.96
2018-07-26T13:21:06.310Z,54.75
2018-07-26T13:23:32.429Z,54.55
2018-07-26T13:25:58.680Z,54.95
2018-07-26T13:28:24.719Z,55.46
2018-07-26T13:30:50.837Z,55.66
2018-07-26T13:33:20.833Z,55.96
2018-07-26T13:35:46.883Z,55.31
2018-07-26T13:38:12.947Z,55.65
2018-07-26T13:40:38.983Z,55.99
2018-07-26T13:43:05.023Z,56.31
2018-07-26T13:45:31.120Z,56.27
2018-07-26T13:47:57.158Z,56.22
2018-07-26T13:50:23.301Z,56.78
2018-07-26T13:52:49.339Z,56.79
2018-07-26T13:55:15.695Z,56.85
2018-07-26T13:57:41.740Z,57.05
2018-07-26T14:00:07.780Z,56.83
2018-07-26T14:02:33.839Z,56.92
2018-07-26T14:04:59.877Z,57.14
2018-07-26T14:07:25.932Z,57.05
2018-07-26T14:09:52.326Z,56.99
2018-07-26T14:12:18.277Z,57.21
2018-07-26T14:14:44.310Z,57.42
2018-07-26T14:17:10.366Z,57.81
2018-07-26T14:19:36.760Z,58.07
2018-07-26T14:22:02.838Z,58.07
2018-07-26T14:24:28.900Z,58.13
2018-07-26T14:26:55.978Z,57.88
2018-07-26T14:29:22.035Z,58.06
2018-07-26T14:31:48.084Z,58.00
2018-07-26T14:34:14.141Z,58.33
2018-07-26T14:36:40.205Z,58.86
2018-07-26T14:39:06.534Z,58.92
2018-07-26T14:41:32.570Z,59.12
2018-07-26T14:43:58.658Z,59.04
2018-07-26T14:46:24.718Z,58.84
2018-07-26T14:48:51.252Z,58.50
2018-07-26T14:51:17.321Z,58.49
2018-07-26T14:53:43.728Z,58.63
2018-07-26T14:56:09.795Z,58.57
2018-07-26T14:58:35.960Z,58.49
2018-07-26T15:01:02.025Z,58.63
2018-07-26T15:03:28.438Z,58.67
2018-07-26T15:05:54.498Z,58.92
2018-07-26T15:08:20.548Z,58.77
2018-07-26T15:10:46.622Z,58.67
2018-07-26T15:13:12.674Z,58.76
2018-07-26T15:15:38.762Z,58.84
2018-07-26T15:18:04.793Z,58.88
2018-07-26T15:20:30.932Z,59.02
2018-07-26T15:22:56.978Z,59.03
2018-07-26T15:25:23.046Z,58.85
2018-07-26T15:27:49.381Z,59.08
2018-07-26T15:30:15.455Z,58.97
2018-07-26T15:32:41.503Z,58.87
2018-07-26T15:35:07.535Z,58.69
2018-07-26T15:37:33.597Z,58.88
2018-07-26T15:39:59.653Z,58.83
2018-07-26T15:42:26.008Z,58.81
2018-07-26T15:44:52.080Z,58.63
2018-07-26T15:47:18.160Z,58.36
2018-07-26T15:49:44.210Z,57.98
2018-07-26T15:52:10.250Z,58.06
2018-07-26T15:54:36.634Z,58.07
2018-07-26T15:57:02.907Z,57.73
2018-07-26T15:59:28.978Z,57.42
2018-07-26T16:01:55.031Z,57.57
2018-07-26T16:04:21.091Z,57.23
2018-07-26T16:06:48.256Z,57.31
2018-07-26T16:09:14.645Z,57.01
2018-07-26T16:11:40.686Z,56.67
2018-07-26T16:14:07.926Z,56.69
2018-07-26T16:16:33.965Z,56.84
2018-07-26T16:19:00.012Z,56.32
2018-07-26T16:21:26.067Z,56.15
2018-07-26T16:23:52.107Z,56.10
2018-07-26T16:26:18.172Z,55.94
2018-07-26T16:28:44.325Z,55.93
2018-07-26T16:31:10.679Z,55.45
2018-07-26T16:33:36.733Z,54.65
2018-07-26T16:36:02.800Z,53.68
2018-07-26T16:38:28.843Z,52.55
2018-07-26T16:40:54.894Z,51.71
2018-07-26T16:43:20.929Z,51.69
2018-07-26T16:45:46.987Z,51.49
2018-07-26T16:48:13.093Z,51.84
2018-07-26T16:50:39.153Z,51.90
2018-07-26T16:53:05.209Z,51.40
2018-07-26T16:55:31.288Z,51.01
2018-07-26T16:57:57.371Z,50.66
2018-07-26T17:00:23.475Z,50.49
2018-07-26T17:02:49.571Z,50.78
2018-07-26T17:05:15.661Z,50.86
2018-07-26T17:07:41.817Z,50.37
2018-07-26T17:10:07.990Z,49.84
2018-07-26T17:12:34.061Z,49.37
2018-07-26T17:15:00.128Z,48.42
2018-07-26T17:17:26.167Z,47.68
2018-07-26T17:19:52.590Z,47.60
2018-07-26T17:22:18.642Z,47.14
2018-07-26T17:24:44.732Z,47.40
2018-07-26T17:27:11.153Z,47.63
2018-07-26T17:29:37.192Z,47.83
2018-07-26T17:32:03.229Z,47.55
2018-07-26T17:34:29.287Z,46.96
2018-07-26T17:36:55.331Z,46.69
2018-07-26T17:39:21.363Z,46.09
2018-07-26T17:41:47.415Z,45.66
2018-07-26T17:44:13.460Z,45.30
2018-07-26T17:46:39.505Z,44.64
2018-07-26T17:49:05.552Z,43.84
2018-07-26T17:51:31.970Z,42.91
2018-07-26T17:53:58.023Z,42.18
2018-07-26T17:56:25.124Z,41.47
2018-07-26T17:58:51.178Z,40.84
2018-07-26T18:01:17.247Z,40.08
2018-07-26T18:03:43.297Z,39.44
2018-07-26T18:06:09.419Z,38.70
2018-07-26T18:08:35.470Z,38.21
2018-07-26T18:11:01.528Z,37.66
2018-07-26T18:13:27.563Z,37.19
2018-07-26T18:15:53.735Z,36.73
2018-07-26T18:18:19.782Z,36.29
2018-07-26T18:20:45.846Z,35.86
2018-07-26T18:23:11.896Z,35.47
2018-07-26T18:25:38.040Z,35.20
2018-07-26T18:28:04.055Z,34.79
2018-07-26T18:30:30.094Z,34.50
2018-07-26T18:32:56.143Z,34.21
2018-07-26T18:35:22.174Z,33.88
2018-07-26T18:37:48.210Z,33.63
2018-07-26T18:40:14.253Z,33.31
2018-07-26T18:42:40.290Z,33.09
2018-07-26T18:45:06.323Z,32.85
2018-07-26T18:47:32.359Z,32.65
2018-07-26T18:49:58.398Z,32.41
2018-07-26T18:52:24.438Z,32.15
2018-07-26T18:54:50.468Z,31.95
2018-07-26T18:57:16.612Z,31.79
2018-07-26T18:59:42.682Z,31.67
2018-07-26T19:02:08.780Z,31.40
2018-07-26T19:04:34.812Z,31.25
2018-07-26T19:07:00.865Z,31.02
2018-07-26T19:09:26.905Z,30.80
2018-07-26T19:11:52.938Z,30.64
2018-07-26T19:14:18.974Z,30.42
2018-07-26T19:16:45.007Z,30.19
2018-07-26T19:19:11.387Z,30.02
2018-07-26T19:21:37.418Z,29.87
2018-07-26T19:24:03.456Z,29.70
2018-07-26T19:26:29.523Z,29.60
2018-07-26T19:28:55.555Z,29.44
2018-07-26T19:31:21.592Z,29.28
2018-07-26T19:33:47.634Z,29.13
2018-07-26T19:36:13.669Z,28.97
2018-07-26T19:38:39.719Z,28.86
2018-07-26T19:41:05.749Z,28.75
2018-07-26T19:43:31.786Z,28.65
2018-07-26T19:45:57.821Z,28.55
2018-07-26T19:48:23.860Z,28.43
2018-07-26T19:50:49.898Z,28.36
2018-07-26T19:53:15.938Z,28.26
2018-07-26T19:55:41.972Z,28.20
2018-07-26T19:58:08.006Z,28.10
2018-07-26T20:00:34.078Z,28.02
2018-07-26T20:03:00.110Z,27.98
2018-07-26T20:05:26.138Z,27.90
2018-07-26T20:07:52.169Z,27.83
2018-07-26T20:10:18.204Z,27.77
2018-07-26T20:12:44.242Z,27.72
2018-07-26T20:15:10.291Z,27.65
2018-07-26T20:17:36.654Z,27.61
2018-07-26T20:20:02.699Z,27.53
2018-07-26T20:22:28.799Z,27.47
2018-07-26T20:24:54.836Z,27.42
2018-07-26T20:27:20.867Z,27.36
2018-07-26T20:29:46.913Z,27.33
2018-07-26T20:32:13.043Z,27.24
2018-07-26T20:34:39.209Z,27.16
2018-07-26T20:37:05.213Z,27.06
2018-07-26T20:39:31.274Z,26.99
2018-07-26T20:41:57.305Z,26.89
2018-07-26T20:44:23.599Z,26.78
2018-07-26T20:46:49.642Z,26.68
2018-07-26T20:49:15.685Z,26.66
2018-07-26T20:51:41.725Z,26.58
2018-07-26T20:54:07.820Z,26.52
2018-07-26T20:56:33.830Z,26.46
2018-07-26T20:58:59.865Z,26.38
2018-07-26T21:01:25.909Z,26.34
2018-07-26T21:03:51.949Z,26.26
2018-07-26T21:06:17.989Z,26.23
2018-07-26T21:08:44.330Z,26.15
2018-07-26T21:11:10.366Z,26.11
2018-07-26T21:13:36.414Z,26.06
2018-07-26T21:16:02.456Z,26.02
2018-07-26T21:18:28.577Z,25.97
2018-07-26T21:20:54.854Z,25.94
2018-07-26T21:23:20.893Z,25.87
2018-07-26T21:25:46.968Z,25.82
2018-07-26T21:28:12.995Z,25.78
2018-07-26T21:30:39.029Z,25.72
2018-07-26T21:33:05.070Z,25.67
2018-07-26T21:35:31.107Z,25.64
2018-07-26T21:37:57.146Z,25.56
2018-07-26T21:40:23.186Z,25.51
2018-07-26T21:42:49.214Z,25.45
2018-07-26T21:45:15.245Z,25.37
2018-07-26T21:47:41.289Z,25.33
2018-07-26T21:50:07.346Z,25.24
2018-07-26T21:52:33.378Z,25.17
2018-07-26T21:54:59.438Z,25.12
2018-07-26T21:57:25.473Z,25.06
2018-07-26T21:59:51.543Z,24.98
2018-07-26T22:02:17.634Z,24.91
2018-07-26T22:04:43.813Z,24.84
2018-07-26T22:07:09.847Z,24.79
2018-07-26T22:09:35.902Z,24.74
2018-07-26T22:12:01.940Z,24.70
2018-07-26T22:14:28.058Z,24.67
2018-07-26T22:16:54.093Z,24.60
2018-07-26T22:19:20.126Z,24.54
2018-07-26T22:21:46.166Z,24.45
2018-07-26T22:24:12.248Z,24.41
2018-07-26T22:26:38.293Z,24.33
2018-07-26T22:29:04.353Z,24.27
2018-07-26T22:31:30.390Z,24.20
2018-07-26T22:33:56.418Z,24.16
2018-07-26T22:36:22.453Z,24.10
2018-07-26T22:38:48.485Z,24.04
2018-07-26T22:41:14.521Z,23.98
2018-07-26T22:43:40.589Z,23.90
2018-07-26T22:46:06.629Z,23.86
2018-07-26T22:48:32.661Z,23.81
2018-07-26T22:50:58.703Z,23.78
2018-07-26T22:53:24.734Z,23.75
2018-07-26T22:55:50.765Z,23.71
2018-07-26T22:58:17.138Z,23.68
2018-07-26T23:00:43.175Z,23.63
2018-07-26T23:03:09.209Z,23.59
2018-07-26T23:05:35.246Z,23.53
2018-07-26T23:08:01.286Z,23.49
2018-07-26T23:10:27.459Z,23.42
2018-07-26T23:12:53.496Z,23.40
2018-07-26T23:15:19.563Z,23.38
2018-07-26T23:17:45.619Z,23.32
2018-07-26T23:20:11.685Z,23.29
2018-07-26T23:22:37.721Z,23.21
2018-07-26T23:25:03.843Z,23.17
2018-07-26T23:27:29.878Z,23.11
2018-07-26T23:29:55.933Z,23.05
2018-07-26T23:32:21.961Z,23.01
2018-07-26T23:34:47.999Z,22.99
2018-07-26T23:37:14.029Z,22.90
2018-07-26T23:39:40.064Z,22.86
2018-07-26T23:42:06.095Z,22.80
2018-07-26T23:44:32.125Z,22.75
2018-07-26T23:46:59.278Z,22.70
2018-07-26T23:49:25.305Z,22.67
2018-07-26T23:51:51.345Z,22.63
2018-07-26T23:54:17.382Z,22.57
2018-07-26T23:56:43.417Z,22.53
2018-07-26T23:59:09.446Z,22.50
